Time;durP1;ratioP1;P1;durP2;ratioP2;P2;SDS_P1;SDS_P2;PMS_P1;PMS_P2;Temp;Humidity;BMP_temperature;BMP_pressure;BME280_temperature;BME280_humidity;BME280_pressure;Samples;Min_cycle;Max_cycle;Signal;HPM_P1;HPM_P2
2021/01/30 10:08:42;;;;;;;;;;;;;;;;;;5148636;27;19912;-82
2021/01/30 10:11:09;;;;;;;;;;;;;;;;;;5145783;27;19938;-94
2021/01/30 10:16:12;;;;;;;;;;;;;;;;;;5026480;28;19936;-85
2021/01/30 10:18:38;;;;;;;;;;;;;;;;;;5058150;28;20300;-84
2021/01/30 10:21:07;;;;;;;;;;;;;;;;;;5037355;27;19940;-84
2021/01/30 10:23:33;;;;;;;;;;;;;;;;;;5004898;28;19947;-78
2021/01/30 10:25:59;;;;;;;;;;;;;;;;;;5013448;28;20335;-81
2021/01/30 10:28:25;;;;;;;;;;;;;;;;;;5021148;28;19955;-79
2021/01/30 10:30:51;;;;;;;;;;;;;;;;;;5055452;28;19932;-89
2021/01/30 10:33:18;;;;;;;;;;;;;;;;;;5035066;28;19936;-89
2021/01/30 10:35:44;;;;;;;;;;;;;;;;;;4992847;28;19922;-91
2021/01/30 10:38:10;;;;;;;;;;;;;;;;;;5032516;28;19985;-84
2021/01/30 10:40:37;;;;;;;;;;;;;;;;;;5021714;28;20431;-85
2021/01/30 10:43:03;;;;;;;;;;;;;;;;;;5046481;28;19955;-78
2021/01/30 10:45:29;;;;;;;;;;;;;;;;;;5026402;28;20409;-83
2021/01/30 10:50:59;;;;;;;;;;;;;;;;;;4986330;28;19988;-82
2021/01/30 10:53:25;;;;;;;;;;;;;;;;;;4999317;28;19927;-82
2021/01/30 10:55:51;;;;;;;;;;;;;;;;;;5009328;28;20305;-83
2021/01/30 10:58:17;;;;;;;;;;;;;;;;;;4995842;28;20029;-82
2021/01/30 11:00:43;;;;;;;;;;;;;;;;;;4994311;28;20017;-82
2021/01/30 11:03:09;;;;;;;;;;;;;;;;;;5010383;28;19951;-84
2021/01/30 11:05:35;;;;;;;;;;;;;;;;;;5011045;28;19925;-82
2021/01/30 11:08:01;;;;;;;;;;;;;;;;;;5000001;28;19947;-81
2021/01/30 11:10:27;;;;;;;;;;;;;;;;;;4984583;28;19933;-67
2021/01/30 11:12:53;;;;;;;;;;;;;;;;;;4986271;28;19933;-67
2021/01/30 11:15:19;;;;;;;;;;;;;;;;;;4985698;28;20094;-69
2021/01/30 11:17:46;;;;;;;;;;;;;;;;;;5007037;28;19980;-74
2021/01/30 11:20:12;;;;;;;;;;;;;;;;;;4985933;28;19964;-74
2021/01/30 11:22:38;;;;;;;;;;;;;;;;;;5000946;28;20435;-69
2021/01/30 11:25:07;;;;;;;;;;;;;;;;;;4995190;28;19922;-75
2021/01/30 11:27:33;;;;;;;;;;;;;;;;;;4971831;28;19933;-75
2021/01/30 11:29:59;;;;;;;;;;;;;;;;;;4972373;28;19956;-72
2021/01/30 11:32:27;;;;;;;;;;;;;;;;;;4970924;28;19933;-75
2021/01/30 11:34:53;;;;;;;;;;;;;;;;;;4972384;28;20463;-68
2021/01/30 11:37:19;;;;;;;;;;;;;;;;;;4972412;28;19926;-68
2021/01/30 11:39:45;;;;;;;;;;;;;;;;;;4973795;28;20009;-70
2021/01/30 11:42:11;;;;;;;;;;;;;;;;;;4975333;28;19967;-68
2021/01/30 11:44:37;;;;;;;;;;;;;;;;;;4974680;28;19955;-69
2021/01/30 11:47:03;;;;;;;;;;;;;;;;;;4972255;28;19922;-69
2021/01/30 11:49:29;;;;;;;;;;;;;;;;;;4970796;28;19926;-69
2021/01/30 11:51:55;;;;;;;;;;;;;;;;;;4971693;28;20105;-69
2021/01/30 11:54:21;;;;;;;;;;;;;;;;;;4971969;28;19929;-69
2021/01/30 11:56:47;;;;;;;;;;;;;;;;;;4972863;28;19972;-69
2021/01/30 11:59:13;;;;;;;;;;;;;;;;;;4968842;28;20403;-69
2021/01/30 12:01:39;;;;;;;;;;;;;;;;;;4971795;28;19987;-69
2021/01/30 12:04:05;;;;;;;;;;;;;;;;;;4972645;28;19957;-69
2021/01/30 12:06:31;;;;;;;;;;;;;;;;;;4972296;28;20328;-68
2021/01/30 12:08:57;;;;;;;;;;;;;;;;;;4973140;28;19969;-68
2021/01/30 12:11:23;;;;;;;;;;;;;;;;;;4973133;28;20491;-68
2021/01/30 12:13:50;;;;;;;;;;;;;;;;;;4970417;28;19954;-67
2021/01/30 12:16:16;;;;;;;;;;;;;;;;;;4973766;28;20437;-67
2021/01/30 12:18:42;;;;;;;;;;;;;;;;;;4971571;28;19922;-68
2021/01/30 12:21:08;;;;;;;;;;;;;;;;;;4972707;28;20368;-68
2021/01/30 12:23:34;;;;;;;;;;;;;;;;;;4976078;28;19926;-68
2021/01/30 12:26:00;;;;;;;;;;;;;;;;;;4971846;28;19970;-67
2021/01/30 12:28:26;;;;;;;;;;;;;;;;;;4975433;28;20298;-68
2021/01/30 12:30:52;;;;;;;;;;;;;;;;;;4971044;28;20519;-68
2021/01/30 12:33:18;;;;;;;;;;;;;;;;;;4971681;28;19941;-67
2021/01/30 12:35:44;;;;;;;;;;;;;;;;;;4974055;28;19926;-68
2021/01/30 12:38:11;;;;;;;;;;;;;;;;;;4977477;28;20296;-68
2021/01/30 12:40:37;;;;;;;;;;;;;;;;;;4972220;28;19930;-68
2021/01/30 12:43:03;;;;;;;;;;;;;;;;;;4971200;28;19933;-67
2021/01/30 12:45:29;;;;;;;;;;;;;;;;;;4981466;28;20385;-68
2021/01/30 12:47:55;;;;;;;;;;;;;;;;;;4978327;28;20368;-68
2021/01/30 12:50:21;;;;;;;;;;;;;;;;;;4984145;28;19956;-69
2021/01/30 12:52:47;;;;;;;;;;;;;;;;;;4979983;28;20408;-68
2021/01/30 12:55:13;;;;;;;;;;;;;;;;;;4974825;28;20374;-68
2021/01/30 12:57:39;;;;;;;;;;;;;;;;;;4972976;28;19922;-68
2021/01/30 13:00:05;;;;;;;;;;;;;;;;;;4973072;28;19934;-69
2021/01/30 13:02:31;;;;;;;;;;;;;;;;;;4981391;28;19952;-69
2021/01/30 13:04:57;;;;;;;;;;;;;;;;;;4975606;28;19975;-69
2021/01/30 13:07:23;;;;;;;;;;;;;;;;;;4976831;28;20322;-69
2021/01/30 13:09:49;;;;;;;;;;;;;;;;;;4981421;28;20292;-69
2021/01/30 13:12:17;;;;;;;;;;;;;;;;;;4975574;28;19958;-70
2021/01/30 13:14:43;;;;;;;;;;;;;;;;;;4975414;28;19945;-70
2021/01/30 13:17:09;;;;;;;;;;;;;;;;;;4973675;28;20380;-69
2021/01/30 13:19:35;;;;;;;;;;;;;;;;;;4973549;28;19929;-69
2021/01/30 13:22:02;;;;;;;;;;;;;;;;;;4973961;28;19945;-70
2021/01/30 13:24:28;;;;;;;;;;;;;;;;;;4975703;28;19922;-70
2021/01/30 13:26:54;;;;;;;;;;;;;;;;;;4973009;28;19928;-69
2021/01/30 13:29:20;;;;;;;;;;;;;;;;;;4970627;28;19983;-69
2021/01/30 13:31:46;;;;;;;;;;;;;;;;;;4976193;28;20017;-69
2021/01/30 13:34:12;;;;;;;;;;;;;;;;;;4971310;28;19933;-69
2021/01/30 13:36:38;;;;;;;;;;;;;;;;;;4969421;28;20388;-69
2021/01/30 13:39:04;;;;;;;;;;;;;;;;;;4969081;28;19922;-69
2021/01/30 13:41:30;;;;;;;;;;;;;;;;;;4973382;28;19928;-69
2021/01/30 13:43:56;;;;;;;;;;;;;;;;;;4973393;28;19922;-69
2021/01/30 13:46:22;;;;;;;;;;;;;;;;;;4972912;28;20388;-69
2021/01/30 13:48:48;;;;;;;;;;;;;;;;;;4969688;28;19929;-69
2021/01/30 13:51:14;;;;;;;;;;;;;;;;;;4970157;28;19953;-69
2021/01/30 13:53:40;;;;;;;;;;;;;;;;;;4972250;28;19972;-69
2021/01/30 13:56:06;;;;;;;;;;;;;;;;;;4969918;28;19929;-69
2021/01/30 13:58:32;;;;;;;;;;;;;;;;;;4968951;28;19944;-69
2021/01/30 14:00:58;;;;;;;;;;;;;;;;;;4972071;28;19933;-69
2021/01/30 14:03:24;;;;;;;;;;;;;;;;;;4971713;28;20043;-69
2021/01/30 14:05:50;;;;;;;;;;;;;;;;;;4970785;28;19953;-69
2021/01/30 14:08:16;;;;;;;;;;;;;;;;;;4969689;28;19930;-69
2021/01/30 14:10:42;;;;;;;;;;;;;;;;;;4971101;28;20394;-69
2021/01/30 14:13:08;;;;;;;;;;;;;;;;;;4974942;28;20462;-69
2021/01/30 14:15:35;;;;;;;;;;;;;;;;;;4968627;28;20588;-69
2021/01/30 14:18:03;;;;;;;;;;;;;;;;;;4972111;28;19978;-69
2021/01/30 14:20:29;;;;;;;;;;;;;;;;;;4968122;28;20524;-69
2021/01/30 14:22:55;;;;;;;;;;;;;;;;;;4972153;28;20021;-68
2021/01/30 14:25:21;;;;;;;;;;;;;;;;;;4969401;28;20410;-68
2021/01/30 14:27:47;;;;;;;;;;;;;;;;;;4971150;28;19928;-68
2021/01/30 14:30:14;;;;;;;;;;;;;;;;;;4970131;28;19929;-68
2021/01/30 14:32:40;;;;;;;;;;;;;;;;;;4968342;28;19997;-68
2021/01/30 14:35:06;;;;;;;;;;;;;;;;;;4972931;28;20509;-68
2021/01/30 14:37:32;;;;;;;;;;;;;;;;;;4969623;28;20327;-68
2021/01/30 14:39:59;;;;;;;;;;;;;;;;;;4968814;28;20356;-69
2021/01/30 14:42:25;;;;;;;;;;;;;;;;;;4969227;28;20287;-69
2021/01/30 14:44:51;;;;;;;;;;;;;;;;;;4974674;28;19932;-69
2021/01/30 14:47:17;;;;;;;;;;;;;;;;;;4972923;28;19922;-69
2021/01/30 14:49:43;;;;;;;;;;;;;;;;;;4980812;28;19934;-69
2021/01/30 14:52:09;;;;;;;;;;;;;;;;;;4970173;28;19937;-69
2021/01/30 14:54:35;;;;;;;;;;;;;;;;;;4969686;28;20240;-69
2021/01/30 14:57:01;;;;;;;;;;;;;;;;;;4976962;28;19940;-69
2021/01/30 14:59:27;;;;;;;;;;;;;;;;;;4987732;28;19964;-69
2021/01/30 15:01:53;;;;;;;;;;;;;;;;;;4976377;28;19922;-68
2021/01/30 15:04:19;;;;;;;;;;;;;;;;;;4988741;28;19922;-69
2021/01/30 15:06:45;;;;;;;;;;;;;;;;;;4991292;28;20584;-67
2021/01/30 15:09:11;;;;;;;;;;;;;;;;;;4991767;28;19940;-69
2021/01/30 15:11:37;;;;;;;;;;;;;;;;;;4992675;28;19964;-69
2021/01/30 15:14:03;;;;;;;;;;;;;;;;;;4978215;28;19936;-69
2021/01/30 15:16:30;;;;;;;;;;;;;;;;;;4983157;28;19956;-69
2021/01/30 15:18:56;;;;;;;;;;;;;;;;;;4982633;28;19922;-69
2021/01/30 15:21:23;;;;;;;;;;;;;;;;;;4973500;28;19929;-69
2021/01/30 15:23:49;;;;;;;;;;;;;;;;;;4972512;28;19967;-69
2021/01/30 15:26:15;;;;;;;;;;;;;;;;;;4973713;28;19972;-69
2021/01/30 15:28:41;;;;;;;;;;;;;;;;;;4986150;28;19922;-69
2021/01/30 15:31:07;;;;;;;;;;;;;;;;;;4992226;28;20008;-69
2021/01/30 15:33:33;;;;;;;;;;;;;;;;;;4981775;28;20352;-69
2021/01/30 15:36:00;;;;;;;;;;;;;;;;;;4981736;28;19957;-70
2021/01/30 15:38:26;;;;;;;;;;;;;;;;;;4983835;28;20402;-70
2021/01/30 15:40:52;;;;;;;;;;;;;;;;;;4978414;28;19956;-69
2021/01/30 15:43:18;;;;;;;;;;;;;;;;;;4972532;28;19956;-68
2021/01/30 15:45:44;;;;;;;;;;;;;;;;;;4990361;28;19922;-69
2021/01/30 15:48:10;;;;;;;;;;;;;;;;;;4987022;28;19929;-69
2021/01/30 15:50:36;;;;;;;;;;;;;;;;;;4977107;28;20021;-69
2021/01/30 15:53:02;;;;;;;;;;;;;;;;;;4975289;28;19962;-69
2021/01/30 15:55:28;;;;;;;;;;;;;;;;;;4976638;28;20029;-68
2021/01/30 15:57:54;;;;;;;;;;;;;;;;;;4979599;28;19934;-68
2021/01/30 16:00:20;;;;;;;;;;;;;;;;;;4979061;28;19928;-68
2021/01/30 16:02:46;;;;;;;;;;;;;;;;;;5017598;28;19965;-69
2021/01/30 16:05:12;;;;;;;;;;;;;;;;;;4979149;28;19964;-70
2021/01/30 16:07:38;;;;;;;;;;;;;;;;;;4976990;28;20399;-70
2021/01/30 16:10:04;;;;;;;;;;;;;;;;;;4984996;28;20029;-69
2021/01/30 16:12:30;;;;;;;;;;;;;;;;;;4981901;28;19979;-68
2021/01/30 16:14:56;;;;;;;;;;;;;;;;;;4981327;28;19933;-69
2021/01/30 16:17:23;;;;;;;;;;;;;;;;;;4979161;28;19956;-68
2021/01/30 16:19:49;;;;;;;;;;;;;;;;;;4975718;28;19933;-68
2021/01/30 16:22:15;;;;;;;;;;;;;;;;;;4971935;28;19991;-68
2021/01/30 16:24:44;;;;;;;;;;;;;;;;;;4968574;28;19969;-68
2021/01/30 16:27:10;;;;;;;;;;;;;;;;;;4957752;28;19937;-67
2021/01/30 16:29:39;;;;;;;;;;;;;;;;;;4988722;28;20033;-68
2021/01/30 16:32:05;;;;;;;;;;;;;;;;;;4973887;28;19929;-67
2021/01/30 16:34:31;;;;;;;;;;;;;;;;;;5009727;28;19960;-68
2021/01/30 16:36:58;;;;;;;;;;;;;;;;;;4981897;28;19997;-68
2021/01/30 16:39:24;;;;;;;;;;;;;;;;;;4989363;28;19922;-68
2021/01/30 16:41:51;;;;;;;;;;;;;;;;;;4977682;28;20006;-68
2021/01/30 16:44:17;;;;;;;;;;;;;;;;;;4974561;28;20014;-69
2021/01/30 16:46:43;;;;;;;;;;;;;;;;;;4971601;28;19930;-68
2021/01/30 16:49:09;;;;;;;;;;;;;;;;;;4979749;28;19922;-68
2021/01/30 16:51:35;;;;;;;;;;;;;;;;;;4977477;28;19941;-68
2021/01/30 16:54:01;;;;;;;;;;;;;;;;;;4973048;28;19936;-68
2021/01/30 16:56:27;;;;;;;;;;;;;;;;;;4967594;28;19930;-68
2021/01/30 16:58:53;;;;;;;;;;;;;;;;;;4969469;28;19990;-67
2021/01/30 17:01:19;;;;;;;;;;;;;;;;;;4970377;28;19952;-66
2021/01/30 17:03:45;;;;;;;;;;;;;;;;;;4970205;28;19952;-68
2021/01/30 17:06:11;;;;;;;;;;;;;;;;;;4970317;28;20294;-67
2021/01/30 17:08:37;;;;;;;;;;;;;;;;;;4972355;28;20091;-67
2021/01/30 17:11:03;;;;;;;;;;;;;;;;;;4969672;28;20007;-68
2021/01/30 17:13:30;;;;;;;;;;;;;;;;;;4978427;28;20395;-68
2021/01/30 17:15:57;;;;;;;;;;;;;;;;;;4984531;28;19926;-75
2021/01/30 17:18:23;;;;;;;;;;;;;;;;;;4976718;28;19932;-81
2021/01/30 17:20:49;;;;;;;;;;;;;;;;;;4977466;28;19959;-82
2021/01/30 17:23:15;;;;;;;;;;;;;;;;;;4972827;28;19963;-81
2021/01/30 17:25:41;;;;;;;;;;;;;;;;;;4970920;28;19926;-75
2021/01/30 17:28:07;;;;;;;;;;;;;;;;;;4973598;28;19922;-74
2021/01/30 17:30:37;;;;;;;;;;;;;;;;;;4983964;28;20299;-74
2021/01/30 17:33:04;;;;;;;;;;;;;;;;;;4987255;28;19956;-75
2021/01/30 17:35:30;;;;;;;;;;;;;;;;;;4990154;28;19948;-72
2021/01/30 17:37:56;;;;;;;;;;;;;;;;;;4986269;28;19943;-75
2021/01/30 17:40:22;;;;;;;;;;;;;;;;;;4974613;28;19933;-71
2021/01/30 17:42:48;;;;;;;;;;;;;;;;;;4972997;28;19979;-69
2021/01/30 17:45:14;;;;;;;;;;;;;;;;;;4976979;28;19994;-71
2021/01/30 17:47:40;;;;;;;;;;;;;;;;;;4980170;28;19922;-71
2021/01/30 17:50:06;;;;;;;;;;;;;;;;;;4971087;28;20013;-70
2021/01/30 17:52:32;;;;;;;;;;;;;;;;;;4974205;28;19926;-70
2021/01/30 17:54:58;;;;;;;;;;;;;;;;;;4969350;28;19960;-70
2021/01/30 17:57:24;;;;;;;;;;;;;;;;;;4970607;28;19926;-70
2021/01/30 17:59:50;;;;;;;;;;;;;;;;;;4981303;28;19928;-71
2021/01/30 18:02:16;;;;;;;;;;;;;;;;;;4986100;28;19922;-70
2021/01/30 18:04:42;;;;;;;;;;;;;;;;;;4987528;28;19926;-70
2021/01/30 18:07:08;;;;;;;;;;;;;;;;;;4969220;28;19969;-71
2021/01/30 18:09:34;;;;;;;;;;;;;;;;;;4974211;28;20287;-71
2021/01/30 18:12:00;;;;;;;;;;;;;;;;;;4970215;28;20039;-71
2021/01/30 18:14:27;;;;;;;;;;;;;;;;;;4970189;28;19962;-70
2021/01/30 18:16:53;;;;;;;;;;;;;;;;;;4969583;28;19952;-71
2021/01/30 18:19:19;;;;;;;;;;;;;;;;;;4968439;28;19926;-71
2021/01/30 18:21:46;;;;;;;;;;;;;;;;;;4969830;28;19965;-72
2021/01/30 18:24:12;;;;;;;;;;;;;;;;;;4972207;28;20001;-71
2021/01/30 18:26:38;;;;;;;;;;;;;;;;;;4971120;28;19926;-71
2021/01/30 18:29:04;;;;;;;;;;;;;;;;;;4971933;28;19926;-70
2021/01/30 18:31:31;;;;;;;;;;;;;;;;;;4966186;28;20055;-71
2021/01/30 18:33:57;;;;;;;;;;;;;;;;;;4973681;28;19926;-71
2021/01/30 18:36:23;;;;;;;;;;;;;;;;;;4966916;28;19956;-71
2021/01/30 18:38:49;;;;;;;;;;;;;;;;;;4972545;28;19957;-71
2021/01/30 18:41:15;;;;;;;;;;;;;;;;;;4970722;28;19922;-71
2021/01/30 18:43:41;;;;;;;;;;;;;;;;;;4971108;28;20438;-71
2021/01/30 18:46:08;;;;;;;;;;;;;;;;;;4972323;28;19957;-71
2021/01/30 18:48:34;;;;;;;;;;;;;;;;;;4976374;28;19980;-71
2021/01/30 18:51:00;;;;;;;;;;;;;;;;;;4973091;28;19959;-71
2021/01/30 18:53:26;;;;;;;;;;;;;;;;;;4970849;28;19975;-71
2021/01/30 18:55:52;;;;;;;;;;;;;;;;;;4975328;28;20291;-71
2021/01/30 18:58:18;;;;;;;;;;;;;;;;;;4973833;28;19926;-72
2021/01/30 19:00:44;;;;;;;;;;;;;;;;;;4971113;28;20025;-71
2021/01/30 19:03:10;;;;;;;;;;;;;;;;;;4977353;28;19956;-71
2021/01/30 19:05:36;;;;;;;;;;;;;;;;;;4969520;28;19956;-72
2021/01/30 19:08:02;;;;;;;;;;;;;;;;;;4972661;28;20372;-72
2021/01/30 19:10:28;;;;;;;;;;;;;;;;;;4972427;28;19934;-71
2021/01/30 19:12:54;;;;;;;;;;;;;;;;;;4970359;28;19953;-72
2021/01/30 19:15:20;;;;;;;;;;;;;;;;;;4970877;28;20018;-72
2021/01/30 19:17:46;;;;;;;;;;;;;;;;;;4972323;28;19928;-72
2021/01/30 19:20:12;;;;;;;;;;;;;;;;;;4973701;28;20351;-72
2021/01/30 19:22:38;;;;;;;;;;;;;;;;;;4969716;28;20036;-71
2021/01/30 19:25:04;;;;;;;;;;;;;;;;;;4971712;28;19930;-71
2021/01/30 19:27:31;;;;;;;;;;;;;;;;;;4972919;28;19963;-72
2021/01/30 19:29:57;;;;;;;;;;;;;;;;;;4971629;28;19930;-71
2021/01/30 19:32:23;;;;;;;;;;;;;;;;;;5000944;28;19936;-71
2021/01/30 19:34:49;;;;;;;;;;;;;;;;;;4972438;28;19955;-70
2021/01/30 19:37:15;;;;;;;;;;;;;;;;;;4972258;28;20043;-69
2021/01/30 19:39:41;;;;;;;;;;;;;;;;;;4971182;28;19939;-70
2021/01/30 19:42:07;;;;;;;;;;;;;;;;;;4970180;28;19939;-69
2021/01/30 19:44:33;;;;;;;;;;;;;;;;;;4973389;28;20319;-69
2021/01/30 19:46:59;;;;;;;;;;;;;;;;;;4972468;28;19930;-70
2021/01/30 19:49:25;;;;;;;;;;;;;;;;;;4972382;28;19995;-70
2021/01/30 19:51:51;;;;;;;;;;;;;;;;;;4974713;28;19926;-70
2021/01/30 19:54:18;;;;;;;;;;;;;;;;;;4975944;28;19922;-70
2021/01/30 19:56:44;;;;;;;;;;;;;;;;;;4972194;28;19941;-70
2021/01/30 19:59:10;;;;;;;;;;;;;;;;;;4971134;28;20056;-69
2021/01/30 20:01:36;;;;;;;;;;;;;;;;;;4973667;28;19929;-69
2021/01/30 20:04:02;;;;;;;;;;;;;;;;;;4976129;28;19975;-70
2021/01/30 20:06:28;;;;;;;;;;;;;;;;;;4971386;28;19953;-70
2021/01/30 20:08:54;;;;;;;;;;;;;;;;;;4973582;28;19922;-70
2021/01/30 20:11:23;;;;;;;;;;;;;;;;;;4974158;28;19922;-69
2021/01/30 20:13:49;;;;;;;;;;;;;;;;;;4973774;28;20026;-69
2021/01/30 20:16:15;;;;;;;;;;;;;;;;;;4972785;28;20434;-70
2021/01/30 20:18:41;;;;;;;;;;;;;;;;;;4973987;28;19932;-70
2021/01/30 20:21:07;;;;;;;;;;;;;;;;;;4973323;28;20043;-71
2021/01/30 20:23:33;;;;;;;;;;;;;;;;;;4971995;28;19930;-70
2021/01/30 20:25:59;;;;;;;;;;;;;;;;;;4970557;28;19956;-71
2021/01/30 20:28:26;;;;;;;;;;;;;;;;;;4977396;28;20365;-71
2021/01/30 20:30:52;;;;;;;;;;;;;;;;;;4982116;28;20047;-70
2021/01/30 20:33:18;;;;;;;;;;;;;;;;;;4976681;28;19997;-71
2021/01/30 20:35:45;;;;;;;;;;;;;;;;;;4987065;28;20123;-70
2021/01/30 20:38:11;;;;;;;;;;;;;;;;;;4989773;28;20314;-70
2021/01/30 20:40:37;;;;;;;;;;;;;;;;;;4974363;28;19956;-70
2021/01/30 20:43:04;;;;;;;;;;;;;;;;;;4975435;28;19957;-71
2021/01/30 20:45:30;;;;;;;;;;;;;;;;;;4976233;28;19963;-71
2021/01/30 20:47:56;;;;;;;;;;;;;;;;;;4975394;28;19926;-71
2021/01/30 20:50:24;;;;;;;;;;;;;;;;;;4981452;28;20051;-71
2021/01/30 20:52:50;;;;;;;;;;;;;;;;;;4969542;28;19940;-72
2021/01/30 20:55:16;;;;;;;;;;;;;;;;;;4987167;28;20438;-71
2021/01/30 20:57:42;;;;;;;;;;;;;;;;;;4986796;28;20026;-71
2021/01/30 21:00:08;;;;;;;;;;;;;;;;;;4983739;28;20034;-71
2021/01/30 21:02:34;;;;;;;;;;;;;;;;;;4976492;28;19953;-71
2021/01/30 21:05:00;;;;;;;;;;;;;;;;;;4988758;28;19956;-71
2021/01/30 21:07:27;;;;;;;;;;;;;;;;;;4986935;28;20225;-70
2021/01/30 21:09:53;;;;;;;;;;;;;;;;;;4980776;28;20493;-70
2021/01/30 21:12:19;;;;;;;;;;;;;;;;;;4982635;28;20206;-70
2021/01/30 21:14:45;;;;;;;;;;;;;;;;;;4975071;28;19961;-69
2021/01/30 21:17:11;;;;;;;;;;;;;;;;;;4990188;28;19994;-70
2021/01/30 21:19:37;;;;;;;;;;;;;;;;;;4976110;28;19922;-71
2021/01/30 21:22:03;;;;;;;;;;;;;;;;;;4970590;28;20005;-71
2021/01/30 21:24:29;;;;;;;;;;;;;;;;;;4968909;28;19944;-70
2021/01/30 21:26:55;;;;;;;;;;;;;;;;;;4972365;28;19922;-71
2021/01/30 21:29:22;;;;;;;;;;;;;;;;;;4971663;28;19953;-71
2021/01/30 21:31:48;;;;;;;;;;;;;;;;;;4968929;28;19922;-71
2021/01/30 21:34:14;;;;;;;;;;;;;;;;;;4973018;28;19944;-71
2021/01/30 21:36:40;;;;;;;;;;;;;;;;;;4972067;28;20419;-72
2021/01/30 21:39:06;;;;;;;;;;;;;;;;;;4967401;28;19963;-71
2021/01/30 21:41:32;;;;;;;;;;;;;;;;;;4972198;28;20373;-71
2021/01/30 21:43:58;;;;;;;;;;;;;;;;;;4971557;28;19960;-71
2021/01/30 21:46:25;;;;;;;;;;;;;;;;;;4969197;28;19928;-71
2021/01/30 21:48:51;;;;;;;;;;;;;;;;;;5000725;28;19932;-70
2021/01/30 21:51:17;;;;;;;;;;;;;;;;;;4969327;28;19953;-71
2021/01/30 21:53:43;;;;;;;;;;;;;;;;;;4967814;28;19939;-71
2021/01/30 21:56:09;;;;;;;;;;;;;;;;;;4968328;28;19975;-70
2021/01/30 21:58:36;;;;;;;;;;;;;;;;;;4967539;28;19926;-70
2021/01/30 22:01:02;;;;;;;;;;;;;;;;;;4968470;28;19957;-70
2021/01/30 22:03:28;;;;;;;;;;;;;;;;;;4970409;28;19960;-70
2021/01/30 22:05:54;;;;;;;;;;;;;;;;;;4968522;28;20768;-70
2021/01/30 22:08:20;;;;;;;;;;;;;;;;;;4970149;28;19922;-70
2021/01/30 22:10:46;;;;;;;;;;;;;;;;;;5011176;28;19929;-70
2021/01/30 22:13:12;;;;;;;;;;;;;;;;;;4990398;28;19959;-70
2021/01/30 22:15:38;;;;;;;;;;;;;;;;;;4989988;28;20366;-70
2021/01/30 22:18:04;;;;;;;;;;;;;;;;;;4993985;28;19997;-70
2021/01/30 22:20:30;;;;;;;;;;;;;;;;;;5008868;28;19994;-71
2021/01/30 22:22:56;;;;;;;;;;;;;;;;;;5001401;28;19928;-71
2021/01/30 22:25:22;;;;;;;;;;;;;;;;;;4993908;28;19944;-71
2021/01/30 22:27:48;;;;;;;;;;;;;;;;;;4996920;28;19932;-71
2021/01/30 22:30:15;;;;;;;;;;;;;;;;;;4998441;28;20012;-71
2021/01/30 22:32:42;;;;;;;;;;;;;;;;;;4988110;28;19922;-71
2021/01/30 22:35:08;;;;;;;;;;;;;;;;;;4998665;28;19922;-70
2021/01/30 22:37:34;;;;;;;;;;;;;;;;;;4996983;28;20380;-71
2021/01/30 22:40:00;;;;;;;;;;;;;;;;;;4987028;28;19922;-72
2021/01/30 22:42:26;;;;;;;;;;;;;;;;;;4991787;28;19929;-71
2021/01/30 22:44:52;;;;;;;;;;;;;;;;;;4987919;28;20031;-71
2021/01/30 22:47:18;;;;;;;;;;;;;;;;;;4982803;28;20053;-71
2021/01/30 22:49:44;;;;;;;;;;;;;;;;;;4980192;28;20334;-72
2021/01/30 22:52:11;;;;;;;;;;;;;;;;;;4982680;28;19922;-71
2021/01/30 22:54:37;;;;;;;;;;;;;;;;;;4979660;28;20055;-71
2021/01/30 22:57:03;;;;;;;;;;;;;;;;;;4984931;28;20331;-71
2021/01/30 22:59:30;;;;;;;;;;;;;;;;;;4986183;28;20001;-71
2021/01/30 23:01:56;;;;;;;;;;;;;;;;;;4985389;28;20402;-72
2021/01/30 23:04:22;;;;;;;;;;;;;;;;;;4988896;28;19996;-72
2021/01/30 23:06:48;;;;;;;;;;;;;;;;;;4986567;28;19959;-72
2021/01/30 23:09:14;;;;;;;;;;;;;;;;;;4988592;28;20273;-72
2021/01/30 23:11:40;;;;;;;;;;;;;;;;;;4989227;28;19995;-71
2021/01/30 23:14:06;;;;;;;;;;;;;;;;;;4989025;28;20008;-71
2021/01/30 23:16:33;;;;;;;;;;;;;;;;;;4972119;28;19933;-71
2021/01/30 23:19:00;;;;;;;;;;;;;;;;;;4970538;28;19936;-71
2021/01/30 23:21:26;;;;;;;;;;;;;;;;;;5004269;28;20036;-71
2021/01/30 23:23:52;;;;;;;;;;;;;;;;;;4997877;28;19952;-71
2021/01/30 23:26:18;;;;;;;;;;;;;;;;;;4980909;28;19922;-72
2021/01/30 23:28:44;;;;;;;;;;;;;;;;;;4992691;28;20333;-71
2021/01/30 23:31:11;;;;;;;;;;;;;;;;;;5002029;28;20016;-72
2021/01/30 23:33:37;;;;;;;;;;;;;;;;;;4992806;28;19925;-71
2021/01/30 23:36:03;;;;;;;;;;;;;;;;;;4992864;28;19990;-71
2021/01/30 23:38:29;;;;;;;;;;;;;;;;;;4999063;28;19936;-72
2021/01/30 23:40:55;;;;;;;;;;;;;;;;;;4986381;28;20464;-71
2021/01/30 23:43:21;;;;;;;;;;;;;;;;;;4989064;28;19925;-71
2021/01/30 23:45:47;;;;;;;;;;;;;;;;;;4990915;28;19974;-72
2021/01/30 23:48:13;;;;;;;;;;;;;;;;;;5000953;28;19947;-71
2021/01/30 23:50:39;;;;;;;;;;;;;;;;;;4984884;28;19980;-71
2021/01/30 23:53:05;;;;;;;;;;;;;;;;;;5001045;28;20322;-71
2021/01/30 23:55:31;;;;;;;;;;;;;;;;;;4992510;28;20021;-71
2021/01/30 23:57:57;;;;;;;;;;;;;;;;;;4994522;28;19947;-71
